Time;durP1;ratioP1;P1;durP2;ratioP2;P2;SDS_P1;SDS_P2;PMS_P1;PMS_P2;Temp;Humidity;BMP_temperature;BMP_pressure;BME280_temperature;BME280_humidity;BME280_pressure;Samples;Min_cycle;Max_cycle;Signal;HPM_P1;HPM_P2
2022/04/28 00:00:05;;;;;;;6.80;4.80;;;8.70;99.90;;;;;;5052520;28;20921;-69
2022/04/28 00:02:30;;;;;;;5.47;4.93;;;8.70;99.90;;;;;;5052810;28;20433;-69
2022/04/28 00:04:56;;;;;;;7.60;5.13;;;8.70;99.90;;;;;;5053442;28;20788;-69
2022/04/28 00:07:22;;;;;;;6.53;4.70;;;8.70;99.90;;;;;;5051981;28;20240;-69
2022/04/28 00:09:47;;;;;;;6.03;4.77;;;8.70;99.90;;;;;;5051970;28;20233;-69
2022/04/28 00:12:12;;;;;;;5.00;3.93;;;8.70;99.90;;;;;;5051864;28;20179;-69
2022/04/28 00:14:38;;;;;;;11.63;4.50;;;8.80;99.90;;;;;;5051738;28;20942;-69
2022/04/28 00:17:04;;;;;;;5.20;3.77;;;8.90;99.90;;;;;;5051913;28;20200;-69
2022/04/28 00:19:30;;;;;;;6.90;4.53;;;8.80;99.90;;;;;;5052301;28;20208;-69
2022/04/28 00:21:55;;;;;;;7.93;5.67;;;8.80;99.90;;;;;;5052201;28;20416;-69
2022/04/28 00:24:21;;;;;;;6.10;4.30;;;8.80;99.90;;;;;;5051699;28;20182;-69
2022/04/28 00:26:46;;;;;;;6.63;4.40;;;8.80;99.90;;;;;;5051613;28;20272;-69
2022/04/28 00:29:11;;;;;;;8.10;5.10;;;8.70;99.90;;;;;;5051716;28;20195;-69
2022/04/28 00:31:37;;;;;;;6.93;5.50;;;8.70;99.90;;;;;;5051956;28;20185;-70
2022/04/28 00:34:03;;;;;;;6.90;4.47;;;8.80;99.90;;;;;;5052164;28;20159;-69
2022/04/28 00:36:29;;;;;;;8.07;5.30;;;8.80;99.90;;;;;;5051631;28;20730;-69
2022/04/28 00:38:54;;;;;;;5.70;3.90;;;8.70;99.90;;;;;;5051721;28;20413;-69
2022/04/28 00:41:20;;;;;;;7.77;5.10;;;8.60;99.90;;;;;;5051951;28;20175;-69
2022/04/28 00:43:53;;;;;;;5.93;4.80;;;8.60;99.90;;;;;;5033922;28;20542;-69
2022/04/28 00:46:19;;;;;;;5.47;4.27;;;8.60;99.90;;;;;;5033728;28;20281;-69
2022/04/28 00:51:31;;;;;;;4.93;3.90;;;8.50;99.90;;;;;;5052032;28;20501;-69
2022/04/28 00:53:59;;;;;;;7.30;5.70;;;8.40;99.90;;;;;;5051817;28;20397;-69
2022/04/28 00:56:28;;;;;;;6.93;5.10;;;8.50;99.90;;;;;;5033709;28;20433;-68
2022/04/28 00:58:55;;;;;;;8.00;6.47;;;8.50;99.90;;;;;;5051875;28;20416;-70
2022/04/28 01:01:21;;;;;;;8.77;6.80;;;8.50;99.90;;;;;;5051622;28;20405;-69
2022/04/28 01:03:47;;;;;;;7.63;6.70;;;8.40;99.90;;;;;;5051786;28;20424;-68
2022/04/28 01:06:13;;;;;;;8.70;5.80;;;8.40;99.90;;;;;;5051581;28;20436;-68
2022/04/28 01:08:40;;;;;;;5.80;5.10;;;8.30;99.90;;;;;;5051523;28;20193;-69
2022/04/28 01:11:06;;;;;;;8.33;5.10;;;8.30;99.90;;;;;;5051648;28;20401;-69
2022/04/28 01:13:31;;;;;;;7.17;5.47;;;8.30;99.90;;;;;;5052180;28;20409;-69
2022/04/28 01:15:57;;;;;;;7.60;5.17;;;8.20;99.90;;;;;;5056312;28;20405;-69
2022/04/28 01:18:23;;;;;;;8.07;5.50;;;8.10;99.90;;;;;;5066429;28;20170;-69
2022/04/28 01:20:48;;;;;;;7.10;4.97;;;8.10;99.90;;;;;;5068340;28;20171;-69
2022/04/28 01:23:14;;;;;;;6.23;5.63;;;8.10;99.90;;;;;;5070810;28;20178;-70
2022/04/28 01:25:39;;;;;;;10.27;4.97;;;8.10;99.90;;;;;;5070948;28;20163;-70
2022/04/28 01:28:05;;;;;;;5.73;4.10;;;8.00;99.90;;;;;;5068510;28;20581;-69
2022/04/28 01:30:30;;;;;;;5.63;5.10;;;8.00;99.90;;;;;;5066945;28;20755;-69
2022/04/28 01:32:57;;;;;;;7.23;4.70;;;8.00;99.90;;;;;;5062297;28;20171;-69
2022/04/28 01:35:23;;;;;;;8.73;4.77;;;8.10;99.90;;;;;;5062446;28;20175;-68
2022/04/28 01:37:49;;;;;;;4.90;4.17;;;8.00;99.90;;;;;;5061469;28;20436;-68
2022/04/28 01:40:16;;;;;;;6.40;4.80;;;8.00;99.90;;;;;;5060063;28;20417;-68
2022/04/28 01:42:42;;;;;;;7.10;3.90;;;8.00;99.90;;;;;;5059424;28;20186;-69
2022/04/28 01:45:09;;;;;;;5.60;4.40;;;8.00;99.90;;;;;;5056547;28;20528;-69
2022/04/28 01:47:36;;;;;;;4.70;4.23;;;7.90;99.90;;;;;;5059530;28;20840;-68
2022/04/28 01:50:03;;;;;;;7.13;4.60;;;8.00;99.90;;;;;;5054007;28;20510;-69
2022/04/28 01:55:13;;;;;;;4.73;4.23;;;8.00;99.90;;;;;;5055656;28;20455;-70
2022/04/28 01:57:39;;;;;;;5.33;4.37;;;8.00;99.90;;;;;;5055571;28;20943;-69
2022/04/28 02:00:06;;;;;;;7.90;6.00;;;8.00;99.90;;;;;;5054976;28;20171;-69
2022/04/28 02:02:32;;;;;;;6.53;4.13;;;7.90;99.90;;;;;;5054733;28;20899;-69
2022/04/28 02:05:01;;;;;;;8.13;3.53;;;7.90;99.90;;;;;;5054510;28;20447;-69
2022/04/28 02:07:28;;;;;;;7.37;5.10;;;7.90;99.90;;;;;;5054618;28;20232;-69
2022/04/28 02:09:54;;;;;;;4.87;3.80;;;7.90;99.90;;;;;;5054449;28;20471;-70
2022/04/28 02:12:19;;;;;;;8.93;4.90;;;7.90;99.90;;;;;;5054682;28;20405;-69
2022/04/28 02:14:46;;;;;;;7.37;5.20;;;7.90;99.90;;;;;;5054236;28;20436;-69
2022/04/28 02:17:12;;;;;;;8.03;4.10;;;7.80;99.90;;;;;;5054636;28;20194;-69
2022/04/28 02:19:37;;;;;;;5.83;4.47;;;7.80;99.90;;;;;;5054345;28;20413;-69
2022/04/28 02:22:03;;;;;;;4.73;4.13;;;7.80;99.90;;;;;;5054152;28;20413;-68
2022/04/28 02:24:29;;;;;;;5.07;4.47;;;7.80;99.90;;;;;;5054248;28;20167;-68
2022/04/28 02:26:54;;;;;;;4.67;3.90;;;7.70;99.90;;;;;;5054104;28;20974;-68
2022/04/28 02:29:21;;;;;;;6.40;4.43;;;7.70;99.90;;;;;;5053739;28;20561;-69
2022/04/28 02:31:46;;;;;;;5.20;4.17;;;7.70;99.90;;;;;;5053842;28;20585;-69
2022/04/28 02:34:12;;;;;;;6.70;3.73;;;7.60;99.90;;;;;;5053992;28;20410;-69
2022/04/28 02:36:38;;;;;;;4.90;3.47;;;7.60;99.90;;;;;;5053619;28;20268;-68
2022/04/28 02:39:03;;;;;;;7.50;5.77;;;7.60;99.90;;;;;;5053876;28;20854;-68
2022/04/28 02:41:29;;;;;;;4.70;3.20;;;7.50;99.90;;;;;;5054068;28;20174;-69
2022/04/28 02:43:54;;;;;;;4.67;3.77;;;7.40;99.90;;;;;;5053757;28;20705;-68
2022/04/28 02:46:20;;;;;;;4.77;3.93;;;7.30;99.90;;;;;;5053547;28;20195;-68
2022/04/28 02:48:46;;;;;;;4.00;3.40;;;7.30;99.90;;;;;;5053543;28;20175;-69
2022/04/28 02:51:11;;;;;;;4.30;3.90;;;7.30;99.90;;;;;;5053721;28;20171;-68
2022/04/28 02:53:37;;;;;;;6.97;3.83;;;7.30;99.90;;;;;;5054255;28;20171;-68
2022/04/28 02:56:03;;;;;;;4.47;3.40;;;7.20;99.90;;;;;;5053916;28;20174;-68
2022/04/28 02:58:28;;;;;;;4.57;3.50;;;7.20;99.90;;;;;;5056491;28;20178;-68
2022/04/28 03:00:54;;;;;;;5.50;4.20;;;7.20;99.90;;;;;;5055885;28;20174;-68
2022/04/28 03:03:19;;;;;;;4.23;3.60;;;7.20;99.90;;;;;;5053283;28;20257;-67
2022/04/28 03:11:15;;;;;;;5.77;3.53;;;7.00;99.90;;;;;;5053629;28;21079;-69
2022/04/28 03:13:40;;;;;;;4.67;3.30;;;7.00;99.90;;;;;;5053174;28;20473;-69
2022/04/28 03:16:06;;;;;;;6.53;3.77;;;7.00;99.90;;;;;;5053159;28;20171;-69
2022/04/28 03:18:33;;;;;;;8.53;4.77;;;6.90;99.90;;;;;;5053804;28;20175;-69
2022/04/28 03:20:59;;;;;;;5.63;3.00;;;6.90;99.90;;;;;;5056189;28;20794;-69
2022/04/28 03:23:25;;;;;;;6.87;3.53;;;6.90;99.90;;;;;;5058480;28;20408;-69
2022/04/28 03:25:51;;;;;;;3.87;2.77;;;6.90;99.90;;;;;;5054564;28;20390;-69
2022/04/28 03:28:18;;;;;;;7.03;3.60;;;6.80;99.90;;;;;;5052925;28;20630;-68
2022/04/28 03:30:43;;;;;;;7.60;4.40;;;6.80;99.90;;;;;;5050403;28;20973;-68
2022/04/28 03:33:09;;;;;;;3.90;3.60;;;6.70;99.90;;;;;;5052741;28;20468;-70
2022/04/28 03:35:35;;;;;;;5.33;3.43;;;6.70;99.90;;;;;;5053924;28;20159;-69
2022/04/28 03:38:01;;;;;;;5.83;3.63;;;6.70;99.90;;;;;;5053058;28;20179;-69
2022/04/28 03:40:26;;;;;;;4.00;3.40;;;6.70;99.90;;;;;;5054156;28;20175;-69
2022/04/28 03:42:52;;;;;;;4.50;4.10;;;6.70;99.90;;;;;;5053183;28;20178;-68
2022/04/28 03:45:17;;;;;;;12.00;3.63;;;6.70;99.90;;;;;;5053845;28;20228;-69
2022/04/28 03:47:43;;;;;;;7.20;3.63;;;6.70;99.90;;;;;;5053759;28;20224;-68
2022/04/28 03:50:09;;;;;;;4.17;3.10;;;6.60;99.90;;;;;;5052938;28;20198;-69
2022/04/28 03:52:35;;;;;;;7.10;4.30;;;6.60;99.90;;;;;;5052934;28;20171;-69
2022/04/28 03:55:01;;;;;;;2.87;2.47;;;6.60;99.90;;;;;;5052692;28;20413;-68
2022/04/28 03:57:26;;;;;;;6.73;3.70;;;6.60;99.90;;;;;;5052494;28;20429;-68
2022/04/28 03:59:52;;;;;;;4.87;3.80;;;6.60;99.90;;;;;;5052934;28;20179;-69
2022/04/28 04:02:17;;;;;;;6.63;4.40;;;6.60;99.90;;;;;;5052443;28;20164;-69
2022/04/28 04:04:43;;;;;;;5.30;4.10;;;6.60;99.90;;;;;;5054057;28;20194;-69
2022/04/28 04:07:08;;;;;;;5.60;3.63;;;6.60;99.90;;;;;;5052477;28;20652;-69
2022/04/28 04:09:34;;;;;;;4.83;4.20;;;6.60;99.90;;;;;;5052672;28;20544;-69
2022/04/28 04:12:00;;;;;;;4.83;3.77;;;6.60;99.90;;;;;;5052557;28;20166;-69
2022/04/28 04:14:25;;;;;;;3.47;2.40;;;6.70;99.90;;;;;;5052496;28;20855;-68
2022/04/28 04:16:51;;;;;;;6.47;3.83;;;6.70;99.90;;;;;;5052411;28;20738;-69
2022/04/28 04:19:17;;;;;;;6.30;3.57;;;6.70;99.90;;;;;;5052991;28;20170;-69
2022/04/28 04:21:43;;;;;;;7.33;4.07;;;6.80;99.90;;;;;;5053947;28;20228;-69
2022/04/28 04:24:08;;;;;;;6.97;4.33;;;6.80;99.90;;;;;;5054035;28;20895;-69
2022/04/28 04:26:34;;;;;;;5.47;3.80;;;6.80;99.90;;;;;;5054366;28;20351;-69
2022/04/28 04:28:59;;;;;;;4.90;3.90;;;6.90;99.90;;;;;;5041404;23;20219;-71
2022/04/28 04:34:09;;;;;;;4.40;3.47;;;6.90;99.90;;;;;;5031146;28;20668;-70
2022/04/28 04:36:34;;;;;;;6.77;4.83;;;7.00;99.90;;;;;;5030913;28;20403;-71
2022/04/28 04:39:01;;;;;;;5.53;3.50;;;7.00;99.90;;;;;;5027269;28;20184;-70
2022/04/28 04:41:26;;;;;;;5.63;4.30;;;7.10;99.90;;;;;;5011045;28;20164;-71
2022/04/28 04:43:52;;;;;;;7.93;4.10;;;7.20;99.90;;;;;;5011141;28;20456;-70
2022/04/28 04:46:17;;;;;;;9.07;4.70;;;7.20;99.90;;;;;;5011034;28;20160;-69
2022/04/28 04:48:43;;;;;;;7.63;4.30;;;7.30;99.90;;;;;;5011221;28;20279;-71
2022/04/28 04:51:08;;;;;;;9.57;4.90;;;7.40;99.90;;;;;;5011525;28;20196;-71
2022/04/28 04:53:34;;;;;;;5.60;3.87;;;7.50;99.90;;;;;;5014669;28;20187;-71
2022/04/28 04:55:59;;;;;;;5.83;2.93;;;7.60;99.90;;;;;;5015058;28;20547;-70
2022/04/28 04:58:26;;;;;;;4.50;3.87;;;7.60;99.90;;;;;;5015798;28;20202;-70
2022/04/28 05:00:52;;;;;;;6.80;4.00;;;7.70;99.90;;;;;;5015361;28;20614;-70
2022/04/28 05:03:17;;;;;;;7.00;4.33;;;7.80;99.90;;;;;;5015107;28;20454;-70
2022/04/28 05:05:44;;;;;;;7.57;4.40;;;7.80;99.90;;;;;;5015037;28;20430;-70
2022/04/28 05:08:10;;;;;;;7.17;4.20;;;7.90;99.90;;;;;;5015600;28;20192;-70
2022/04/28 05:10:36;;;;;;;7.03;4.00;;;8.00;99.90;;;;;;5015100;28;20451;-70
2022/04/28 05:13:01;;;;;;;4.97;3.60;;;8.10;99.90;;;;;;5015000;28;20403;-70
2022/04/28 05:15:27;;;;;;;3.93;3.50;;;8.20;99.90;;;;;;5015102;28;20415;-70
2022/04/28 05:17:52;;;;;;;3.70;3.20;;;8.40;99.90;;;;;;5015105;28;20689;-69
2022/04/28 05:20:17;;;;;;;5.53;4.40;;;8.60;99.90;;;;;;5015035;28;20532;-70
2022/04/28 05:22:43;;;;;;;6.80;3.93;;;8.60;99.90;;;;;;5015137;28;20196;-71
2022/04/28 05:25:08;;;;;;;4.63;3.50;;;8.50;99.90;;;;;;5015272;28;20173;-71
2022/04/28 05:27:34;;;;;;;6.77;3.73;;;8.60;99.90;;;;;;5014882;28;20635;-70
2022/04/28 05:30:00;;;;;;;6.00;4.90;;;8.70;99.90;;;;;;5014858;28;20227;-70
2022/04/28 05:32:25;;;;;;;4.80;3.43;;;8.90;99.90;;;;;;5015042;28;20233;-70
2022/04/28 05:34:50;;;;;;;5.50;4.20;;;9.00;99.90;;;;;;5014826;28;20262;-70
2022/04/28 05:37:16;;;;;;;4.23;3.83;;;9.10;99.90;;;;;;5014854;28;20176;-70
2022/04/28 05:39:43;;;;;;;5.90;4.53;;;9.20;99.90;;;;;;5015696;28;20210;-70
2022/04/28 05:42:09;;;;;;;4.97;3.67;;;9.20;99.90;;;;;;5014705;28;20419;-70
2022/04/28 05:47:20;;;;;;;6.60;3.90;;;9.50;99.90;;;;;;5014893;28;20502;-70
2022/04/28 05:49:46;;;;;;;4.97;3.50;;;9.40;99.90;;;;;;5014387;28;20549;-69
2022/04/28 05:52:11;;;;;;;5.60;3.10;;;9.80;99.90;;;;;;5014140;28;20604;-70
2022/04/28 05:54:39;;;;;;;4.57;3.77;;;9.90;99.90;;;;;;5013945;28;20430;-70
2022/04/28 05:57:05;;;;;;;6.00;4.10;;;9.90;99.90;;;;;;5014454;28;20178;-70
2022/04/28 05:59:30;;;;;;;5.50;4.10;;;10.10;99.90;;;;;;5014148;28;20423;-70
2022/04/28 06:01:56;;;;;;;4.30;3.03;;;10.30;99.90;;;;;;5013850;28;20508;-70
2022/04/28 06:04:22;;;;;;;4.80;3.87;;;10.60;99.90;;;;;;5013205;28;20636;-70
2022/04/28 06:06:48;;;;;;;6.10;4.47;;;10.70;99.90;;;;;;5014037;28;20515;-71
2022/04/28 06:09:13;;;;;;;5.17;3.73;;;10.60;99.90;;;;;;5013477;28;20570;-70
2022/04/28 06:11:38;;;;;;;4.53;3.93;;;10.80;99.90;;;;;;5013659;28;20600;-71
2022/04/28 06:14:04;;;;;;;5.57;4.53;;;10.80;99.90;;;;;;5013789;28;20164;-70
2022/04/28 06:16:29;;;;;;;6.43;4.70;;;10.60;99.90;;;;;;5013630;28;20574;-70
2022/04/28 06:18:55;;;;;;;4.97;3.60;;;10.60;99.90;;;;;;5013539;28;20334;-71
2022/04/28 06:21:20;;;;;;;8.83;4.53;;;10.90;99.90;;;;;;5013535;28;20195;-70
2022/04/28 06:23:46;;;;;;;4.87;4.33;;;11.00;99.90;;;;;;5013670;28;20234;-69
2022/04/28 06:26:11;;;;;;;5.80;4.10;;;11.00;99.90;;;;;;5013434;28;20618;-70
2022/04/28 06:28:37;;;;;;;5.20;3.43;;;10.80;99.90;;;;;;5013635;28;20232;-70
2022/04/28 06:31:02;;;;;;;6.10;4.50;;;10.90;99.90;;;;;;5013548;28;20196;-70
2022/04/28 06:33:28;;;;;;;5.23;4.10;;;10.80;99.90;;;;;;5013400;28;20524;-69
2022/04/28 06:35:55;;;;;;;4.93;4.37;;;10.80;99.90;;;;;;5013531;28;20168;-70
2022/04/28 06:38:20;;;;;;;6.23;4.70;;;10.80;99.90;;;;;;5013444;28;20193;-71
2022/04/28 06:40:46;;;;;;;6.57;4.20;;;11.00;99.90;;;;;;5013700;28;20423;-70
2022/04/28 06:43:12;;;;;;;6.63;4.83;;;11.00;99.90;;;;;;5013531;28;20180;-70
2022/04/28 06:46:11;;;;;;;5.60;4.63;;;11.30;99.90;;;;;;5013640;28;20345;-70
2022/04/28 06:48:23;;;;;;;6.50;4.07;;;11.20;99.90;;;;;;5013135;28;20439;-72
2022/04/28 06:50:49;;;;;;;5.53;4.17;;;11.40;99.90;;;;;;5013234;28;20538;-70
2022/04/28 06:53:14;;;;;;;9.60;4.90;;;11.60;99.90;;;;;;5013185;28;20204;-70
2022/04/28 06:55:40;;;;;;;8.83;5.07;;;12.00;99.90;;;;;;5013355;28;20383;-71
2022/04/28 06:58:05;;;;;;;5.67;4.83;;;12.40;99.90;;;;;;5012933;28;20598;-71
2022/04/28 07:00:30;;;;;;;7.93;4.20;;;12.50;99.90;;;;;;5013392;28;20172;-70
2022/04/28 07:02:56;;;;;;;5.00;4.00;;;13.00;99.90;;;;;;5013234;28;20172;-70
2022/04/28 07:05:21;;;;;;;5.90;4.60;;;13.30;99.90;;;;;;5013052;28;20168;-71
2022/04/28 07:07:47;;;;;;;4.90;3.80;;;13.50;99.90;;;;;;5012909;28;20208;-70
2022/04/28 07:10:12;;;;;;;6.30;5.13;;;13.10;99.90;;;;;;5013094;28;20204;-71
2022/04/28 07:12:40;;;;;;;6.03;4.77;;;12.90;99.90;;;;;;5013196;28;20168;-71
2022/04/28 07:15:06;;;;;;;6.73;4.10;;;13.60;99.90;;;;;;5012391;28;20674;-70
2022/04/28 07:17:31;;;;;;;6.20;3.70;;;13.40;99.90;;;;;;5012468;28;20506;-70
2022/04/28 07:19:56;;;;;;;4.60;4.10;;;13.50;99.90;;;;;;5013098;28;20251;-70
2022/04/28 07:22:22;;;;;;;3.70;3.27;;;13.70;99.90;;;;;;5012802;28;20180;-71
2022/04/28 07:24:47;;;;;;;5.80;4.50;;;13.60;99.90;;;;;;5012930;28;20679;-71
2022/04/28 07:27:13;;;;;;;4.73;3.83;;;14.00;99.90;;;;;;5012970;28;20510;-71
2022/04/28 07:29:38;;;;;;;4.27;3.47;;;14.20;99.90;;;;;;5012650;28;20204;-70
2022/04/28 07:32:04;;;;;;;3.57;3.27;;;14.10;99.90;;;;;;5013001;28;20194;-69
2022/04/28 07:34:30;;;;;;;4.73;3.90;;;14.60;99.90;;;;;;5012702;28;20170;-69
2022/04/28 07:36:55;;;;;;;3.40;2.87;;;15.10;99.90;;;;;;5012635;28;20595;-70
2022/04/28 07:39:21;;;;;;;3.10;2.80;;;16.30;99.90;;;;;;5012627;28;20680;-69
2022/04/28 07:41:46;;;;;;;3.63;3.27;;;16.60;99.90;;;;;;5012562;28;20170;-70
2022/04/28 07:44:12;;;;;;;7.37;2.63;;;16.20;99.90;;;;;;5012700;28;20648;-72
2022/04/28 07:46:38;;;;;;;2.53;2.33;;;16.80;99.90;;;;;;5012590;28;20163;-70
2022/04/28 07:49:03;;;;;;;4.87;2.50;;;16.10;99.90;;;;;;5012188;28;20421;-69
2022/04/28 07:51:29;;;;;;;5.60;3.20;;;16.10;99.80;;;;;;5011926;28;20221;-71
2022/04/28 07:53:54;;;;;;;3.73;2.80;;;16.40;98.40;;;;;;5012718;28;20174;-71
2022/04/28 07:56:20;;;;;;;3.67;3.37;;;17.00;98.40;;;;;;5012007;28;20298;-70
2022/04/28 07:58:46;;;;;;;3.10;2.43;;;16.60;98.40;;;;;;5012192;28;20271;-70
2022/04/28 08:01:12;;;;;;;2.47;2.27;;;16.90;98.40;;;;;;5012107;28;20199;-72
2022/04/28 08:03:39;;;;;;;2.60;2.40;;;18.10;96.70;;;;;;5012104;28;20182;-70
2022/04/28 08:06:05;;;;;;;2.70;2.50;;;18.70;95.10;;;;;;5011822;28;20691;-71
2022/04/28 08:08:33;;;;;;;2.80;2.60;;;19.10;93.50;;;;;;5012199;28;20450;-71
2022/04/28 08:10:59;;;;;;;2.90;2.70;;;18.40;93.20;;;;;;5012120;28;20460;-72
2022/04/28 08:13:25;;;;;;;2.93;2.70;;;18.80;93.20;;;;;;5012196;28;20409;-70
2022/04/28 08:15:50;;;;;;;4.03;3.53;;;18.30;92.50;;;;;;5011981;28;20544;-70
2022/04/28 08:18:15;;;;;;;4.20;3.30;;;18.10;92.40;;;;;;5011859;28;20266;-70
2022/04/28 08:20:41;;;;;;;4.07;2.63;;;18.30;91.90;;;;;;5011749;28;20186;-70
2022/04/28 08:23:08;;;;;;;4.50;2.70;;;18.60;93.60;;;;;;5011884;28;20284;-71
2022/04/28 08:25:33;;;;;;;3.17;2.87;;;18.60;92.60;;;;;;5011670;28;20179;-70
2022/04/28 08:27:59;;;;;;;2.97;2.77;;;18.20;90.40;;;;;;5011147;28;20893;-71
2022/04/28 08:30:25;;;;;;;3.77;3.20;;;17.70;90.70;;;;;;5011561;28;20199;-70
2022/04/28 08:32:51;;;;;;;3.53;3.23;;;16.80;92.60;;;;;;5011553;28;20683;-70
2022/04/28 08:35:16;;;;;;;3.23;2.70;;;17.70;92.60;;;;;;5011359;28;20222;-70
2022/04/28 08:37:42;;;;;;;3.43;2.87;;;18.90;88.60;;;;;;5010469;28;20424;-70
2022/04/28 08:40:08;;;;;;;2.77;2.33;;;19.00;87.80;;;;;;5011496;28;20182;-70
2022/04/28 08:42:38;;;;;;;2.90;2.33;;;19.90;85.80;;;;;;5011644;28;20723;-69
2022/04/28 08:45:04;;;;;;;4.17;3.00;;;20.70;81.80;;;;;;5011487;28;20909;-69
2022/04/28 08:47:31;;;;;;;2.33;2.13;;;20.60;82.70;;;;;;5011243;28;20399;-69
2022/04/28 08:49:56;;;;;;;3.97;2.57;;;19.70;81.90;;;;;;5011329;28;20446;-70
2022/04/28 08:52:23;;;;;;;5.43;2.53;;;19.50;84.10;;;;;;5011492;28;20407;-69
2022/04/28 08:54:48;;;;;;;3.63;2.77;;;20.70;80.90;;;;;;5011771;28;20533;-72
2022/04/28 08:57:14;;;;;;;3.60;2.70;;;21.40;79.80;;;;;;5011492;28;20408;-71
2022/04/28 08:59:40;;;;;;;2.87;2.53;;;21.80;76.10;;;;;;5011445;28;20297;-72
2022/04/28 09:02:10;;;;;;;4.10;3.23;;;21.00;76.60;;;;;;5011748;28;20198;-70
2022/04/28 09:04:35;;;;;;;3.80;3.50;;;21.30;74.10;;;;;;5011173;28;20797;-71
2022/04/28 09:07:02;;;;;;;4.10;2.90;;;20.00;77.70;;;;;;5011583;28;20420;-71
2022/04/28 09:09:28;;;;;;;5.03;2.60;;;18.90;82.70;;;;;;5011067;28;20755;-72
2022/04/28 09:11:58;;;;;;;3.10;2.80;;;19.40;81.10;;;;;;5011356;28;20402;-71
2022/04/28 09:14:24;;;;;;;3.53;3.27;;;19.20;80.80;;;;;;5011429;28;20405;-71
2022/04/28 09:16:56;;;;;;;3.33;3.03;;;19.10;79.20;;;;;;5011066;28;20473;-71
2022/04/28 09:19:22;;;;;;;3.00;2.63;;;17.90;78.80;;;;;;5011492;28;20198;-70
2022/04/28 09:21:50;;;;;;;4.23;3.20;;;18.00;81.20;;;;;;5011247;28;20403;-73
2022/04/28 09:24:16;;;;;;;3.87;2.60;;;18.10;80.50;;;;;;5011312;28;20504;-71
2022/04/28 09:26:42;;;;;;;4.03;3.20;;;18.20;80.00;;;;;;5011197;28;20474;-71
2022/04/28 09:29:13;;;;;;;3.80;3.50;;;17.60;80.90;;;;;;5011033;28;20457;-71
2022/04/28 09:31:40;;;;;;;3.40;3.10;;;17.00;83.50;;;;;;5011421;28;20437;-71
2022/04/28 09:34:10;;;;;;;4.07;2.67;;;18.10;81.80;;;;;;5011126;28;20437;-71
2022/04/28 09:36:37;;;;;;;4.37;3.50;;;18.50;81.80;;;;;;5011220;28;20417;-73
2022/04/28 09:39:04;;;;;;;4.40;2.90;;;19.00;78.10;;;;;;5011827;28;20444;-71
2022/04/28 09:44:16;;;;;;;5.90;3.37;;;18.20;76.70;;;;;;5014780;28;20401;-71
2022/04/28 09:46:43;;;;;;;3.97;3.57;;;18.30;77.10;;;;;;5014423;28;20491;-72
2022/04/28 09:49:10;;;;;;;3.50;3.20;;;18.30;78.00;;;;;;5014500;28;20500;-71
2022/04/28 09:51:39;;;;;;;3.30;3.00;;;17.70;80.20;;;;;;5014304;28;20962;-71
2022/04/28 09:54:10;;;;;;;3.30;3.00;;;17.50;79.30;;;;;;5014389;28;20410;-70
2022/04/28 09:56:38;;;;;;;3.83;3.27;;;17.10;81.50;;;;;;5014244;28;20765;-70
2022/04/28 09:59:05;;;;;;;3.60;2.80;;;17.80;79.20;;;;;;5014257;28;20460;-70
2022/04/28 10:01:35;;;;;;;3.80;2.77;;;17.60;79.10;;;;;;5014073;28;20774;-70
2022/04/28 10:04:01;;;;;;;4.40;3.10;;;17.50;81.20;;;;;;5014158;28;20403;-70
2022/04/28 10:06:28;;;;;;;4.50;3.03;;;17.40;80.80;;;;;;5014218;28;20408;-71
2022/04/28 10:08:55;;;;;;;3.20;2.90;;;16.90;80.90;;;;;;5014158;28;20974;-70
2022/04/28 10:11:22;;;;;;;4.80;3.10;;;16.90;82.80;;;;;;5013995;28;20501;-70
2022/04/28 10:13:50;;;;;;;4.17;3.20;;;17.60;80.20;;;;;;5014193;28;20480;-72
2022/04/28 10:16:18;;;;;;;3.10;2.70;;;17.50;80.00;;;;;;5014246;28;20415;-70
2022/04/28 10:18:52;;;;;;;3.90;2.60;;;17.60;79.70;;;;;;5012884;28;20423;-69
2022/04/28 10:21:22;;;;;;;4.47;2.80;;;17.60;78.60;;;;;;5013977;28;20906;-70
2022/04/28 10:33:10;;;;;;;3.70;2.97;;;16.80;80.40;;;;;;5031695;28;20405;-69
2022/04/28 10:35:48;;;;;;;4.87;3.00;;;16.90;81.20;;;;;;5014542;28;20417;-69
2022/04/28 10:38:31;;;;;;;3.10;2.83;;;16.50;81.30;;;;;;5034835;28;20975;-69
2022/04/28 10:40:59;;;;;;;4.80;3.53;;;16.70;82.00;;;;;;5037672;28;20452;-69
2022/04/28 10:43:33;;;;;;;4.60;3.40;;;16.30;79.50;;;;;;5035959;28;20894;-68
2022/04/28 10:46:08;;;;;;;3.27;2.60;;;16.60;80.00;;;;;;5034421;28;20736;-69
2022/04/28 10:48:33;;;;;;;8.03;3.07;;;17.20;78.60;;;;;;5034049;28;20421;-69
2022/04/28 10:51:11;;;;;;;4.17;3.00;;;17.00;75.90;;;;;;5035115;28;20472;-69
2022/04/28 10:53:55;;;;;;;4.30;3.80;;;16.90;78.30;;;;;;5037826;28;20596;-70
2022/04/28 10:56:21;;;;;;;2.37;2.17;;;17.40;77.50;;;;;;5034859;28;21023;-70
2022/04/28 10:58:47;;;;;;;3.30;2.33;;;17.10;77.00;;;;;;5033978;28;20511;-69
2022/04/28 11:01:27;;;;;;;2.30;1.93;;;17.40;77.40;;;;;;5033674;28;20181;-69
2022/04/28 11:03:58;;;;;;;2.40;2.20;;;17.10;78.00;;;;;;5016047;28;20425;-69
2022/04/28 11:06:37;;;;;;;2.53;2.30;;;17.00;77.60;;;;;;5033466;28;20494;-70
2022/04/28 11:09:04;;;;;;;2.60;2.30;;;17.50;76.70;;;;;;5033565;28;20799;-69
2022/04/28 11:11:47;;;;;;;4.53;2.50;;;17.30;75.70;;;;;;5033624;28;20472;-68
2022/04/28 11:14:13;;;;;;;3.20;2.53;;;17.10;76.00;;;;;;5033551;28;20495;-69
2022/04/28 11:16:41;;;;;;;3.73;2.43;;;16.20;77.70;;;;;;5033432;28;20413;-69
2022/04/28 11:19:08;;;;;;;2.50;2.20;;;16.60;78.00;;;;;;5033375;28;20520;-69
2022/04/28 11:21:34;;;;;;;2.73;2.53;;;16.90;77.80;;;;;;5033164;28;20409;-69
2022/04/28 11:24:00;;;;;;;6.63;2.63;;;16.90;78.80;;;;;;5033159;28;20397;-69
2022/04/28 11:26:27;;;;;;;4.80;2.57;;;17.00;78.00;;;;;;5033865;28;20767;-69
2022/04/28 11:28:53;;;;;;;2.53;2.33;;;17.10;77.80;;;;;;5033111;28;20210;-69
2022/04/28 11:31:19;;;;;;;2.50;2.30;;;17.50;76.90;;;;;;5033582;28;20463;-69
2022/04/28 11:33:47;;;;;;;3.60;2.43;;;17.80;75.40;;;;;;5033502;28;20163;-69
2022/04/28 11:36:25;;;;;;;6.47;2.90;;;17.70;75.00;;;;;;5033040;28;20465;-69
2022/04/28 11:38:53;;;;;;;3.57;2.90;;;17.00;76.30;;;;;;5033066;28;20429;-69
2022/04/28 11:41:33;;;;;;;2.83;2.60;;;16.70;79.70;;;;;;5015323;28;20413;-68
2022/04/28 11:44:01;;;;;;;3.97;2.40;;;17.10;78.20;;;;;;5033158;28;20983;-69
2022/04/28 11:46:27;;;;;;;3.47;3.17;;;17.30;77.50;;;;;;5033021;28;20410;-69
2022/04/28 11:48:53;;;;;;;4.60;3.30;;;16.90;78.10;;;;;;5032836;28;20425;-69
2022/04/28 11:51:23;;;;;;;3.33;2.30;;;16.60;77.10;;;;;;5032937;28;20211;-69
2022/04/28 11:53:49;;;;;;;3.13;2.27;;;17.20;76.50;;;;;;5033184;28;20408;-68
2022/04/28 11:56:16;;;;;;;2.60;2.40;;;17.30;72.80;;;;;;5033555;28;20900;-69
2022/04/28 11:58:45;;;;;;;1.87;1.77;;;17.00;72.90;;;;;;5033215;28;20679;-69
2022/04/28 12:01:11;;;;;;;4.20;2.80;;;16.90;75.10;;;;;;5033040;28;20451;-69
2022/04/28 12:03:36;;;;;;;4.40;3.00;;;16.90;74.90;;;;;;5032323;28;20412;-69
2022/04/28 12:06:04;;;;;;;4.97;3.03;;;16.50;76.40;;;;;;5032569;28;20926;-68
2022/04/28 12:08:29;;;;;;;2.60;2.40;;;16.90;76.00;;;;;;5031668;28;20194;-69
2022/04/28 12:19:19;;;;;;;2.80;2.60;;;17.60;74.90;;;;;;5012305;28;20849;-70
2022/04/28 12:19:19;;;;;;;4.50;2.40;;;17.70;74.90;;;;;;5012005;28;20560;-69
2022/04/28 12:21:45;;;;;;;5.53;3.20;;;17.70;74.40;;;;;;5013013;28;20450;-69
2022/04/28 12:24:13;;;;;;;2.50;2.30;;;17.30;74.70;;;;;;5011919;28;20505;-68
2022/04/28 12:26:42;;;;;;;3.10;1.97;;;17.10;75.50;;;;;;5013426;28;20181;-69
2022/04/28 12:29:12;;;;;;;2.47;2.27;;;16.90;76.70;;;;;;5012714;28;20447;-70
2022/04/28 12:31:38;;;;;;;4.80;2.93;;;16.90;76.80;;;;;;5013161;28;20424;-69
2022/04/28 12:34:17;;;;;;;2.37;2.20;;;16.80;76.40;;;;;;5013392;28;20410;-69
2022/04/28 12:36:44;;;;;;;8.30;3.43;;;17.00;76.00;;;;;;4995262;28;20407;-69
2022/04/28 12:39:10;;;;;;;2.40;2.20;;;17.00;76.20;;;;;;5013637;28;20466;-69
2022/04/28 12:41:42;;;;;;;2.20;2.00;;;17.40;75.70;;;;;;5015980;28;20938;-70
2022/04/28 12:44:07;;;;;;;8.10;2.73;;;17.20;72.90;;;;;;5013208;28;20164;-69
2022/04/28 12:46:36;;;;;;;3.20;2.20;;;16.80;73.70;;;;;;5012664;28;20411;-70
2022/04/28 12:49:04;;;;;;;3.57;2.77;;;17.00;73.90;;;;;;5011859;28;20187;-70
2022/04/28 12:51:39;;;;;;;2.60;1.87;;;17.00;72.70;;;;;;5012684;28;20402;-70
2022/04/28 12:54:25;;;;;;;3.43;2.27;;;16.80;75.50;;;;;;5013441;28;20422;-69
2022/04/28 12:57:00;;;;;;;2.87;2.27;;;17.20;74.60;;;;;;4995732;28;20815;-69
2022/04/28 12:59:30;;;;;;;5.90;2.87;;;17.20;73.90;;;;;;5013056;28;20434;-69
2022/04/28 13:01:56;;;;;;;2.43;2.20;;;17.40;72.60;;;;;;5012796;28;20517;-68
2022/04/28 13:04:23;;;;;;;2.10;1.90;;;17.20;72.70;;;;;;5012936;28;20485;-70
2022/04/28 13:06:50;;;;;;;2.90;2.60;;;16.90;72.60;;;;;;5013077;28;20954;-69
2022/04/28 13:09:17;;;;;;;3.03;1.97;;;17.00;73.90;;;;;;5012848;28;20434;-69
2022/04/28 13:11:44;;;;;;;1.90;1.70;;;17.40;72.50;;;;;;5012543;28;20449;-69
2022/04/28 13:14:13;;;;;;;2.20;2.10;;;17.50;72.10;;;;;;4995969;28;20449;-69
2022/04/28 13:16:39;;;;;;;2.73;2.53;;;17.80;71.60;;;;;;5016820;28;20913;-68
2022/04/28 13:19:06;;;;;;;2.40;2.20;;;18.00;71.30;;;;;;5016729;28;20453;-70
2022/04/28 13:21:32;;;;;;;4.37;2.10;;;18.00;71.40;;;;;;5016485;28;20450;-69